Cleveland, Ohio
Current Conditions -  °F | °C
As of 7:53 PM on Wednesday 22 Oct 2014 (Local Time) from KBKL Reporting Station
Overcast Overcast  
Wind Chill: 12°   Ceiling: 4600
Heat Index: 12°   Visibility: 10mi
Dew Point:   Wind: 10mph
Humidity: 64%   Direction: 350°N
Pressure: 30.23"   Gusts: NA
Location:  41.5°N, 81.69°W
Report Text: KBKL 222353Z 35009KT 10SM OVC046 12/05 A3023 RMK AO2 SLP238 T01170050 10117 20100 58005
Loading
Personal Weather Stations






























Interactive Weather Map
Tropical Storm Tracking
New forecast layout! Learn more

10-Day Weather Forecast

Advertisements
Track Severe Weather on mobile